sensor_id;sensor_type;location;lat;lon;timestamp;pressure;altitude;pressure_sealevel;temperature;humidity
52777;BME280;38656;54.260;20.822;2023-10-13T00:02:01;100744.13;;;9.63;100.00
52777;BME280;38656;54.260;20.822;2023-10-13T00:04:32;100744.59;;;9.81;100.00
52777;BME280;38656;54.260;20.822;2023-10-13T00:07:04;100751.38;;;9.72;100.00
52777;BME280;38656;54.260;20.822;2023-10-13T00:09:34;100738.72;;;9.78;100.00
52777;BME280;38656;54.260;20.822;2023-10-13T00:12:04;100733.56;;;10.00;100.00
52777;BME280;38656;54.260;20.822;2023-10-13T00:14:34;100729.16;;;9.64;100.00
52777;BME280;38656;54.260;20.822;2023-10-13T00:17:05;100734.97;;;9.93;100.00
52777;BME280;38656;54.260;20.822;2023-10-13T00:19:32;100739.56;;;10.02;100.00
52777;BME280;38656;54.260;20.822;2023-10-13T00:22:05;100743.16;;;9.77;100.00
52777;BME280;38656;54.260;20.822;2023-10-13T00:24:39;100755.09;;;9.70;100.00
52777;BME280;38656;54.260;20.822;2023-10-13T00:27:10;100758.06;;;9.65;100.00
52777;BME280;38656;54.260;20.822;2023-10-13T00:29:51;100760.66;;;9.78;100.00
52777;BME280;38656;54.260;20.822;2023-10-13T00:32:17;100757.91;;;10.04;100.00
52777;BME280;38656;54.260;20.822;2023-10-13T00:34:52;100766.84;;;10.14;100.00
52777;BME280;38656;54.260;20.822;2023-10-13T00:37:22;100770.19;;;9.92;100.00
52777;BME280;38656;54.260;20.822;2023-10-13T00:39:54;100783.38;;;9.92;100.00
52777;BME280;38656;54.260;20.822;2023-10-13T00:42:23;100782.97;;;9.98;100.00
52777;BME280;38656;54.260;20.822;2023-10-13T00:45:12;100775.06;;;10.22;100.00
52777;BME280;38656;54.260;20.822;2023-10-13T00:47:44;100785.13;;;9.80;100.00
52777;BME280;38656;54.260;20.822;2023-10-13T00:50:22;100775.06;;;9.98;100.00
52777;BME280;38656;54.260;20.822;2023-10-13T00:52:50;100777.09;;;9.82;100.00
52777;BME280;38656;54.260;20.822;2023-10-13T00:55:19;100788.28;;;9.72;100.00
52777;BME280;38656;54.260;20.822;2023-10-13T00:57:51;100786.31;;;10.24;100.00
52777;BME280;38656;54.260;20.822;2023-10-13T01:00:19;100800.53;;;9.73;100.00
52777;BME280;38656;54.260;20.822;2023-10-13T01:02:52;100809.50;;;10.08;100.00
52777;BME280;38656;54.260;20.822;2023-10-13T01:05:33;100807.28;;;9.78;100.00
52777;BME280;38656;54.260;20.822;2023-10-13T01:08:02;100806.91;;;9.58;100.00
52777;BME280;38656;54.260;20.822;2023-10-13T01:10:29;100809.44;;;9.47;100.00
52777;BME280;38656;54.260;20.822;2023-10-13T01:12:58;100802.00;;;9.78;100.00
52777;BME280;38656;54.260;20.822;2023-10-13T01:15:28;100812.19;;;9.58;100.00
52777;BME280;38656;54.260;20.822;2023-10-13T01:18:09;100819.94;;;9.72;100.00
52777;BME280;38656;54.260;20.822;2023-10-13T01:20:40;100815.09;;;9.66;100.00
52777;BME280;38656;54.260;20.822;2023-10-13T01:23:14;100816.06;;;9.65;100.00
52777;BME280;38656;54.260;20.822;2023-10-13T01:25:50;100828.19;;;9.68;100.00
52777;BME280;38656;54.260;20.822;2023-10-13T01:28:17;100822.50;;;9.61;100.00
52777;BME280;38656;54.260;20.822;2023-10-13T01:30:43;100827.50;;;9.53;100.00
52777;BME280;38656;54.260;20.822;2023-10-13T01:33:17;100831.38;;;9.34;100.00
52777;BME280;38656;54.260;20.822;2023-10-13T01:35:43;100812.59;;;9.52;100.00
52777;BME280;38656;54.260;20.822;2023-10-13T01:38:16;100815.53;;;9.60;100.00
52777;BME280;38656;54.260;20.822;2023-10-13T01:40:42;100817.44;;;9.58;100.00
52777;BME280;38656;54.260;20.822;2023-10-13T01:43:09;100825.91;;;9.50;100.00
52777;BME280;38656;54.260;20.822;2023-10-13T01:45:37;100830.09;;;9.27;100.00
52777;BME280;38656;54.260;20.822;2023-10-13T01:48:16;100829.06;;;9.43;100.00
52777;BME280;38656;54.260;20.822;2023-10-13T01:50:45;100832.13;;;9.24;100.00
52777;BME280;38656;54.260;20.822;2023-10-13T01:53:20;100828.59;;;9.62;100.00
52777;BME280;38656;54.260;20.822;2023-10-13T01:55:46;100835.91;;;9.58;100.00
52777;BME280;38656;54.260;20.822;2023-10-13T01:58:15;100832.66;;;9.16;100.00
52777;BME280;38656;54.260;20.822;2023-10-13T02:00:43;100832.63;;;9.29;100.00
52777;BME280;38656;54.260;20.822;2023-10-13T02:03:13;100838.34;;;9.10;100.00
52777;BME280;38656;54.260;20.822;2023-10-13T02:05:46;100835.81;;;9.21;100.00
52777;BME280;38656;54.260;20.822;2023-10-13T02:08:16;100835.50;;;9.13;100.00
52777;BME280;38656;54.260;20.822;2023-10-13T02:10:54;100833.50;;;9.29;100.00
52777;BME280;38656;54.260;20.822;2023-10-13T02:13:22;100832.53;;;9.04;100.00
52777;BME280;38656;54.260;20.822;2023-10-13T02:15:53;100826.31;;;9.06;100.00
52777;BME280;38656;54.260;20.822;2023-10-13T02:18:20;100841.66;;;8.86;100.00
52777;BME280;38656;54.260;20.822;2023-10-13T02:20:55;100837.28;;;8.99;100.00
52777;BME280;38656;54.260;20.822;2023-10-13T02:23:23;100841.88;;;8.83;100.00
52777;BME280;38656;54.260;20.822;2023-10-13T02:25:51;100844.72;;;8.80;100.00
52777;BME280;38656;54.260;20.822;2023-10-13T02:28:27;100847.56;;;8.77;100.00
52777;BME280;38656;54.260;20.822;2023-10-13T02:30:56;100841.03;;;8.95;100.00
52777;BME280;38656;54.260;20.822;2023-10-13T02:33:25;100845.03;;;8.88;100.00
52777;BME280;38656;54.260;20.822;2023-10-13T02:36:03;100847.59;;;9.02;100.00
52777;BME280;38656;54.260;20.822;2023-10-13T02:38:32;100838.22;;;8.98;100.00
52777;BME280;38656;54.260;20.822;2023-10-13T02:40:59;100834.28;;;8.78;100.00
52777;BME280;38656;54.260;20.822;2023-10-13T02:43:37;100842.72;;;8.83;100.00
52777;BME280;38656;54.260;20.822;2023-10-13T02:46:04;100842.59;;;8.85;100.00
52777;BME280;38656;54.260;20.822;2023-10-13T02:48:31;100856.19;;;8.79;100.00
52777;BME280;38656;54.260;20.822;2023-10-13T02:51:07;100849.09;;;8.66;100.00
52777;BME280;38656;54.260;20.822;2023-10-13T02:53:57;100846.25;;;8.70;100.00
52777;BME280;38656;54.260;20.822;2023-10-13T02:56:29;100857.88;;;8.80;100.00
52777;BME280;38656;54.260;20.822;2023-10-13T02:58:55;100859.13;;;8.74;100.00
52777;BME280;38656;54.260;20.822;2023-10-13T03:01:35;100858.34;;;8.59;100.00
52777;BME280;38656;54.260;20.822;2023-10-13T03:04:02;100858.63;;;8.55;100.00
52777;BME280;38656;54.260;20.822;2023-10-13T03:06:29;100864.09;;;8.52;100.00
52777;BME280;38656;54.260;20.822;2023-10-13T03:09:10;100864.09;;;8.52;100.00
52777;BME280;38656;54.260;20.822;2023-10-13T03:11:50;100872.66;;;8.95;100.00
52777;BME280;38656;54.260;20.822;2023-10-13T03:14:21;100866.31;;;8.85;100.00
52777;BME280;38656;54.260;20.822;2023-10-13T03:17:03;100859.09;;;8.61;100.00
52777;BME280;38656;54.260;20.822;2023-10-13T03:19:33;100876.84;;;8.30;100.00
52777;BME280;38656;54.260;20.822;2023-10-13T03:22:02;100864.88;;;8.39;100.00
52777;BME280;38656;54.260;20.822;2023-10-13T03:24:36;100874.75;;;8.36;100.00
52777;BME280;38656;54.260;20.822;2023-10-13T03:27:05;100866.63;;;8.53;100.00
52777;BME280;38656;54.260;20.822;2023-10-13T03:29:41;100869.94;;;8.42;100.00
52777;BME280;38656;54.260;20.822;2023-10-13T03:32:14;100878.66;;;8.43;100.00
52777;BME280;38656;54.260;20.822;2023-10-13T03:34:44;100884.81;;;8.71;100.00
52777;BME280;38656;54.260;20.822;2023-10-13T03:37:29;100876.63;;;8.48;100.00
52777;BME280;38656;54.260;20.822;2023-10-13T03:40:05;100878.53;;;8.31;100.00
52777;BME280;38656;54.260;20.822;2023-10-13T03:42:34;100889.44;;;8.25;100.00
52777;BME280;38656;54.260;20.822;2023-10-13T03:45:06;100879.31;;;8.19;100.00
52777;BME280;38656;54.260;20.822;2023-10-13T03:47:36;100888.03;;;8.34;100.00
52777;BME280;38656;54.260;20.822;2023-10-13T03:50:05;100895.09;;;8.19;100.00
52777;BME280;38656;54.260;20.822;2023-10-13T03:52:41;100890.72;;;8.47;100.00
52777;BME280;38656;54.260;20.822;2023-10-13T03:55:08;100899.78;;;8.14;100.00
52777;BME280;38656;54.260;20.822;2023-10-13T03:57:43;100903.81;;;8.20;100.00
52777;BME280;38656;54.260;20.822;2023-10-13T04:00:12;100893.00;;;8.39;100.00
52777;BME280;38656;54.260;20.822;2023-10-13T04:02:47;100898.41;;;8.50;100.00
52777;BME280;38656;54.260;20.822;2023-10-13T04:05:20;100906.97;;;8.39;100.00
52777;BME280;38656;54.260;20.822;2023-10-13T04:08:05;100917.41;;;8.26;100.00
52777;BME280;38656;54.260;20.822;2023-10-13T04:10:54;100917.41;;;8.26;100.00
52777;BME280;38656;54.260;20.822;2023-10-13T04:13:23;100905.22;;;8.67;100.00
52777;BME280;38656;54.260;20.822;2023-10-13T04:16:08;100905.78;;;8.30;100.00
52777;BME280;38656;54.260;20.822;2023-10-13T04:19:03;100900.13;;;8.37;100.00
52777;BME280;38656;54.260;20.822;2023-10-13T04:21:29;100907.53;;;8.59;100.00
52777;BME280;38656;54.260;20.822;2023-10-13T04:24:13;100913.06;;;8.40;100.00
52777;BME280;38656;54.260;20.822;2023-10-13T04:27:03;100914.97;;;8.23;100.00
52777;BME280;38656;54.260;20.822;2023-10-13T04:29:56;100911.06;;;8.16;100.00
52777;BME280;38656;54.260;20.822;2023-10-13T04:32:23;100915.59;;;8.41;100.00
52777;BME280;38656;54.260;20.822;2023-10-13T04:35:00;100921.03;;;8.11;100.00
52777;BME280;38656;54.260;20.822;2023-10-13T04:37:40;100930.97;;;8.20;100.00
52777;BME280;38656;54.260;20.822;2023-10-13T04:40:27;100932.09;;;8.45;100.00
52777;BME280;38656;54.260;20.822;2023-10-13T04:43:01;100916.09;;;8.48;100.00
52777;BME280;38656;54.260;20.822;2023-10-13T04:45:43;100925.69;;;8.35;100.00
52777;BME280;38656;54.260;20.822;2023-10-13T04:48:21;100916.16;;;8.05;100.00
52777;BME280;38656;54.260;20.822;2023-10-13T04:50:48;100912.34;;;8.23;100.00
52777;BME280;38656;54.260;20.822;2023-10-13T04:53:24;100922.31;;;8.32;100.00
52777;BME280;38656;54.260;20.822;2023-10-13T04:56:00;100920.25;;;8.23;100.00
52777;BME280;38656;54.260;20.822;2023-10-13T04:58:35;100930.22;;;8.18;100.00
52777;BME280;38656;54.260;20.822;2023-10-13T05:01:27;100931.59;;;8.38;100.00
52777;BME280;38656;54.260;20.822;2023-10-13T05:03:53;100932.47;;;8.10;100.00
52777;BME280;38656;54.260;20.822;2023-10-13T05:06:38;100933.22;;;8.26;100.00
52777;BME280;38656;54.260;20.822;2023-10-13T05:09:12;100937.19;;;8.05;100.00
52777;BME280;38656;54.260;20.822;2023-10-13T05:11:57;100925.16;;;8.15;100.00
52777;BME280;38656;54.260;20.822;2023-10-13T05:14:42;100931.94;;;8.05;100.00
52777;BME280;38656;54.260;20.822;2023-10-13T05:17:27;100934.19;;;8.11;100.00
52777;BME280;38656;54.260;20.822;2023-10-13T05:20:11;100935.66;;;8.44;100.00
52777;BME280;38656;54.260;20.822;2023-10-13T05:22:56;100937.25;;;8.32;100.00
52777;BME280;38656;54.260;20.822;2023-10-13T05:25:41;100934.75;;;8.16;100.00
52777;BME280;38656;54.260;20.822;2023-10-13T05:28:27;100936.22;;;8.20;100.00
52777;BME280;38656;54.260;20.822;2023-10-13T05:31:12;100930.41;;;8.15;100.00
52777;BME280;38656;54.260;20.822;2023-10-13T05:33:56;100928.53;;;8.17;100.00
52777;BME280;38656;54.260;20.822;2023-10-13T05:36:41;100931.53;;;8.25;100.00
52777;BME280;38656;54.260;20.822;2023-10-13T05:39:26;100924.25;;;8.85;100.00
52777;BME280;38656;54.260;20.822;2023-10-13T05:42:11;100942.75;;;8.71;100.00
52777;BME280;38656;54.260;20.822;2023-10-13T05:44:56;100953.28;;;8.71;100.00
52777;BME280;38656;54.260;20.822;2023-10-13T05:47:34;100947.09;;;8.57;100.00
52777;BME280;38656;54.260;20.822;2023-10-13T05:50:10;100949.53;;;8.88;100.00
52777;BME280;38656;54.260;20.822;2023-10-13T05:52:50;100935.47;;;9.01;100.00
52777;BME280;38656;54.260;20.822;2023-10-13T05:55:29;100943.34;;;8.61;100.00
52777;BME280;38656;54.260;20.822;2023-10-13T05:58:34;100937.56;;;8.96;100.00
52777;BME280;38656;54.260;20.822;2023-10-13T06:01:23;100941.75;;;8.86;100.00
52777;BME280;38656;54.260;20.822;2023-10-13T06:04:29;100953.16;;;8.99;100.00
52777;BME280;38656;54.260;20.822;2023-10-13T06:07:14;100965.91;;;8.93;100.00
52777;BME280;38656;54.260;20.822;2023-10-13T06:09:58;100963.94;;;9.09;100.00
52777;BME280;38656;54.260;20.822;2023-10-13T06:12:43;100975.59;;;9.45;100.00
52777;BME280;38656;54.260;20.822;2023-10-13T06:15:48;100965.84;;;10.61;100.00
52777;BME280;38656;54.260;20.822;2023-10-13T06:18:32;100970.25;;;9.72;100.00
52777;BME280;38656;54.260;20.822;2023-10-13T06:21:17;100962.69;;;10.56;100.00
52777;BME280;38656;54.260;20.822;2023-10-13T06:24:02;100961.72;;;9.56;100.00
52777;BME280;38656;54.260;20.822;2023-10-13T06:26:50;100962.97;;;10.02;100.00
52777;BME280;38656;54.260;20.822;2023-10-13T06:29:34;100959.25;;;10.17;100.00
52777;BME280;38656;54.260;20.822;2023-10-13T06:32:01;100971.41;;;9.81;100.00
52777;BME280;38656;54.260;20.822;2023-10-13T06:34:28;100968.25;;;10.40;100.00
52777;BME280;38656;54.260;20.822;2023-10-13T06:37:14;100970.09;;;10.51;100.00
52777;BME280;38656;54.260;20.822;2023-10-13T06:40:10;100974.88;;;11.43;100.00
52777;BME280;38656;54.260;20.822;2023-10-13T06:42:52;100980.59;;;10.27;100.00
52777;BME280;38656;54.260;20.822;2023-10-13T06:45:19;100980.47;;;10.16;100.00
52777;BME280;38656;54.260;20.822;2023-10-13T06:47:47;100973.13;;;9.95;100.00
52777;BME280;38656;54.260;20.822;2023-10-13T06:50:18;100969.41;;;9.98;100.00
52777;BME280;38656;54.260;20.822;2023-10-13T06:52:51;100970.56;;;10.19;100.00
52777;BME280;38656;54.260;20.822;2023-10-13T06:55:20;100984.09;;;10.15;100.00
52777;BME280;38656;54.260;20.822;2023-10-13T06:57:54;100978.84;;;10.52;100.00
52777;BME280;38656;54.260;20.822;2023-10-13T07:00:26;100976.81;;;10.68;100.00
52777;BME280;38656;54.260;20.822;2023-10-13T07:03:05;100980.25;;;10.44;100.00
52777;BME280;38656;54.260;20.822;2023-10-13T07:05:44;100971.94;;;10.75;100.00
52777;BME280;38656;54.260;20.822;2023-10-13T07:08:11;100974.72;;;11.09;100.00
52777;BME280;38656;54.260;20.822;2023-10-13T07:10:54;100971.75;;;11.13;100.00
52777;BME280;38656;54.260;20.822;2023-10-13T07:13:43;100974.69;;;11.80;100.00
52777;BME280;38656;54.260;20.822;2023-10-13T07:16:16;100965.78;;;11.23;100.00
52777;BME280;38656;54.260;20.822;2023-10-13T07:18:42;100965.59;;;12.29;100.00
52777;BME280;38656;54.260;20.822;2023-10-13T07:21:18;100969.94;;;11.96;100.00
52777;BME280;38656;54.260;20.822;2023-10-13T07:23:55;100978.97;;;12.05;100.00
52777;BME280;38656;54.260;20.822;2023-10-13T07:26:35;100972.06;;;12.91;100.00
52777;BME280;38656;54.260;20.822;2023-10-13T07:29:03;100968.22;;;13.28;100.00
52777;BME280;38656;54.260;20.822;2023-10-13T07:31:34;100965.13;;;14.67;100.00
52777;BME280;38656;54.260;20.822;2023-10-13T07:34:00;100976.91;;;13.51;100.00
52777;BME280;38656;54.260;20.822;2023-10-13T07:36:36;100993.16;;;12.38;100.00
52777;BME280;38656;54.260;20.822;2023-10-13T07:39:05;100986.56;;;13.52;100.00
52777;BME280;38656;54.260;20.822;2023-10-13T07:41:50;100975.59;;;13.88;100.00
52777;BME280;38656;54.260;20.822;2023-10-13T07:44:24;100985.16;;;14.62;100.00
52777;BME280;38656;54.260;20.822;2023-10-13T07:46:58;100980.41;;;14.65;100.00
52777;BME280;38656;54.260;20.822;2023-10-13T07:49:33;100969.47;;;13.97;100.00
52777;BME280;38656;54.260;20.822;2023-10-13T07:52:06;100971.09;;;13.57;100.00
52777;BME280;38656;54.260;20.822;2023-10-13T07:54:53;100968.41;;;14.91;100.00
52777;BME280;38656;54.260;20.822;2023-10-13T07:57:26;100974.28;;;14.03;100.00
52777;BME280;38656;54.260;20.822;2023-10-13T07:59:56;100971.50;;;15.25;100.00
52777;BME280;38656;54.260;20.822;2023-10-13T08:02:59;100979.03;;;14.91;100.00
52777;BME280;38656;54.260;20.822;2023-10-13T08:05:52;100983.84;;;13.63;100.00
52777;BME280;38656;54.260;20.822;2023-10-13T08:08:31;100976.66;;;15.36;100.00
52777;BME280;38656;54.260;20.822;2023-10-13T08:11:07;100983.22;;;15.32;100.00
52777;BME280;38656;54.260;20.822;2023-10-13T08:16:24;100974.56;;;15.30;100.00
52777;BME280;38656;54.260;20.822;2023-10-13T08:18:55;100977.28;;;14.60;100.00
52777;BME280;38656;54.260;20.822;2023-10-13T08:21:22;100967.22;;;15.52;100.00
52777;BME280;38656;54.260;20.822;2023-10-13T08:23:57;100971.59;;;14.75;100.00
52777;BME280;38656;54.260;20.822;2023-10-13T08:26:28;100969.88;;;16.19;100.00
52777;BME280;38656;54.260;20.822;2023-10-13T08:29:03;100994.66;;;14.64;100.00
52777;BME280;38656;54.260;20.822;2023-10-13T08:31:52;100992.81;;;13.93;100.00
52777;BME280;38656;54.260;20.822;2023-10-13T08:34:34;100986.00;;;15.80;100.00
52777;BME280;38656;54.260;20.822;2023-10-13T08:37:26;100999.84;;;14.35;100.00
52777;BME280;38656;54.260;20.822;2023-10-13T08:39:57;100985.56;;;16.22;100.00
52777;BME280;38656;54.260;20.822;2023-10-13T08:42:30;100977.56;;;15.74;100.00
52777;BME280;38656;54.260;20.822;2023-10-13T08:45:13;100968.66;;;14.78;100.00
52777;BME280;38656;54.260;20.822;2023-10-13T08:47:53;100972.03;;;14.90;100.00
52777;BME280;38656;54.260;20.822;2023-10-13T08:55:58;100960.78;;;15.54;100.00
52777;BME280;38656;54.260;20.822;2023-10-13T08:58:28;100965.31;;;14.76;100.00
52777;BME280;38656;54.260;20.822;2023-10-13T09:01:13;100956.00;;;15.58;100.00
52777;BME280;38656;54.260;20.822;2023-10-13T09:04:07;100958.72;;;16.61;100.00
52777;BME280;38656;54.260;20.822;2023-10-13T09:12:21;100960.97;;;15.14;100.00
52777;BME280;38656;54.260;20.822;2023-10-13T09:15:04;100959.69;;;15.47;100.00
52777;BME280;38656;54.260;20.822;2023-10-13T09:20:08;100951.19;;;15.91;100.00
52777;BME280;38656;54.260;20.822;2023-10-13T09:22:50;100956.47;;;17.02;100.00
52777;BME280;38656;54.260;20.822;2023-10-13T09:25:29;100934.50;;;15.42;100.00
52777;BME280;38656;54.260;20.822;2023-10-13T09:28:01;100943.22;;;16.19;100.00
52777;BME280;38656;54.260;20.822;2023-10-13T09:30:29;100940.75;;;15.50;100.00
52777;BME280;38656;54.260;20.822;2023-10-13T09:33:04;100948.44;;;15.63;100.00
52777;BME280;38656;54.260;20.822;2023-10-13T09:35:31;100938.91;;;16.81;100.00
52777;BME280;38656;54.260;20.822;2023-10-13T09:38:00;100946.22;;;17.60;100.00
52777;BME280;38656;54.260;20.822;2023-10-13T09:40:30;100945.03;;;16.92;100.00
52777;BME280;38656;54.260;20.822;2023-10-13T09:43:04;100925.72;;;15.79;100.00
52777;BME280;38656;54.260;20.822;2023-10-13T09:45:35;100936.03;;;16.29;100.00
52777;BME280;38656;54.260;20.822;2023-10-13T09:48:22;100938.09;;;16.99;100.00
52777;BME280;38656;54.260;20.822;2023-10-13T09:51:02;100932.41;;;17.38;100.00
52777;BME280;38656;54.260;20.822;2023-10-13T09:53:35;100929.22;;;16.62;100.00
52777;BME280;38656;54.260;20.822;2023-10-13T09:56:13;100927.81;;;18.09;100.00
52777;BME280;38656;54.260;20.822;2023-10-13T09:58:51;100924.03;;;19.20;100.00
52777;BME280;38656;54.260;20.822;2023-10-13T10:01:24;100921.66;;;18.84;100.00
52777;BME280;38656;54.260;20.822;2023-10-13T10:04:09;100917.94;;;18.61;100.00
52777;BME280;38656;54.260;20.822;2023-10-13T10:06:39;100925.66;;;17.26;100.00
52777;BME280;38656;54.260;20.822;2023-10-13T10:09:11;100911.19;;;17.10;100.00
52777;BME280;38656;54.260;20.822;2023-10-13T10:17:29;100894.09;;;17.82;100.00
52777;BME280;38656;54.260;20.822;2023-10-13T10:19:59;100880.97;;;15.92;100.00
52777;BME280;38656;54.260;20.822;2023-10-13T10:22:33;100885.03;;;16.42;100.00
52777;BME280;38656;54.260;20.822;2023-10-13T10:25:00;100871.84;;;16.76;100.00
52777;BME280;38656;54.260;20.822;2023-10-13T10:27:55;100870.94;;;16.50;100.00
52777;BME280;38656;54.260;20.822;2023-10-13T10:30:38;100867.84;;;16.08;100.00
52777;BME280;38656;54.260;20.822;2023-10-13T10:33:05;100863.97;;;16.21;100.00
52777;BME280;38656;54.260;20.822;2023-10-13T10:36:00;100854.56;;;16.44;100.00
52777;BME280;38656;54.260;20.822;2023-10-13T10:38:27;100836.97;;;16.52;100.00
52777;BME280;38656;54.260;20.822;2023-10-13T10:41:03;100837.75;;;16.62;100.00
52777;BME280;38656;54.260;20.822;2023-10-13T10:43:36;100832.88;;;15.93;100.00
52777;BME280;38656;54.260;20.822;2023-10-13T10:46:14;100826.00;;;16.19;100.00
52777;BME280;38656;54.260;20.822;2023-10-13T10:48:44;100825.91;;;16.64;100.00
52777;BME280;38656;54.260;20.822;2023-10-13T10:51:12;100827.13;;;16.52;100.00
52777;BME280;38656;54.260;20.822;2023-10-13T10:53:51;100829.16;;;16.04;100.00
52777;BME280;38656;54.260;20.822;2023-10-13T10:56:22;100827.91;;;16.62;100.00
52777;BME280;38656;54.260;20.822;2023-10-13T10:58:57;100813.75;;;16.62;100.00
52777;BME280;38656;54.260;20.822;2023-10-13T11:01:24;100818.72;;;15.93;100.00
52777;BME280;38656;54.260;20.822;2023-10-13T11:04:00;100805.19;;;16.40;100.00
52777;BME280;38656;54.260;20.822;2023-10-13T11:06:46;100797.78;;;17.14;100.00
52777;BME280;38656;54.260;20.822;2023-10-13T11:09:13;100798.34;;;16.38;100.00
52777;BME280;38656;54.260;20.822;2023-10-13T11:12:13;100794.19;;;16.79;100.00
52777;BME280;38656;54.260;20.822;2023-10-13T11:15:12;100794.69;;;16.03;100.00
52777;BME280;38656;54.260;20.822;2023-10-13T11:17:59;100794.31;;;16.16;100.00
52777;BME280;38656;54.260;20.822;2023-10-13T11:20:26;100798.44;;;16.28;100.00
52777;BME280;38656;54.260;20.822;2023-10-13T11:22:52;100788.69;;;16.55;100.00
52777;BME280;38656;54.260;20.822;2023-10-13T11:25:26;100785.72;;;16.22;100.00
52777;BME280;38656;54.260;20.822;2023-10-13T11:27:56;100785.63;;;16.14;100.00
52777;BME280;38656;54.260;20.822;2023-10-13T11:30:26;100769.63;;;16.50;100.00
52777;BME280;38656;54.260;20.822;2023-10-13T11:33:07;100768.69;;;16.59;100.00
52777;BME280;38656;54.260;20.822;2023-10-13T11:35:34;100757.03;;;16.16;100.00
52777;BME280;38656;54.260;20.822;2023-10-13T11:38:21;100765.25;;;15.77;100.00
52777;BME280;38656;54.260;20.822;2023-10-13T11:41:00;100761.19;;;16.18;100.00
52777;BME280;38656;54.260;20.822;2023-10-13T11:43:53;100769.34;;;15.71;100.00
52777;BME280;38656;54.260;20.822;2023-10-13T11:46:34;100757.31;;;16.49;100.00
52777;BME280;38656;54.260;20.822;2023-10-13T11:49:05;100758.66;;;15.81;100.00
52777;BME280;38656;54.260;20.822;2023-10-13T11:51:52;100751.84;;;16.32;100.00
52777;BME280;38656;54.260;20.822;2023-10-13T11:54:27;100735.91;;;16.04;100.00
52777;BME280;38656;54.260;20.822;2023-10-13T11:56:54;100733.66;;;15.91;100.00
52777;BME280;38656;54.260;20.822;2023-10-13T11:59:24;100733.78;;;15.62;100.00
52777;BME280;38656;54.260;20.822;2023-10-13T12:01:53;100726.94;;;15.87;100.00
52777;BME280;38656;54.260;20.822;2023-10-13T12:04:38;100720.47;;;15.90;100.00
52777;BME280;38656;54.260;20.822;2023-10-13T12:07:21;100730.91;;;16.01;100.00
52777;BME280;38656;54.260;20.822;2023-10-13T12:09:51;100719.50;;;15.63;100.00
52777;BME280;38656;54.260;20.822;2023-10-13T12:12:24;100721.06;;;16.20;100.00
52777;BME280;38656;54.260;20.822;2023-10-13T12:14:51;100719.56;;;15.99;100.00
52777;BME280;38656;54.260;20.822;2023-10-13T12:17:28;100715.56;;;15.67;100.00
52777;BME280;38656;54.260;20.822;2023-10-13T12:20:03;100708.50;;;15.94;100.00
52777;BME280;38656;54.260;20.822;2023-10-13T12:22:36;100703.22;;;15.38;100.00
52777;BME280;38656;54.260;20.822;2023-10-13T12:25:05;100702.03;;;15.79;100.00
52777;BME280;38656;54.260;20.822;2023-10-13T12:27:55;100686.53;;;15.92;100.00
52777;BME280;38656;54.260;20.822;2023-10-13T12:30:32;100693.34;;;15.77;100.00
52777;BME280;38656;54.260;20.822;2023-10-13T12:33:17;100684.97;;;15.71;100.00
52777;BME280;38656;54.260;20.822;2023-10-13T12:36:00;100673.97;;;16.73;100.00
52777;BME280;38656;54.260;20.822;2023-10-13T12:38:33;100677.78;;;16.00;100.00
52777;BME280;38656;54.260;20.822;2023-10-13T12:41:05;100663.22;;;15.94;100.00
52777;BME280;38656;54.260;20.822;2023-10-13T12:43:50;100663.09;;;15.78;100.00
52777;BME280;38656;54.260;20.822;2023-10-13T12:46:35;100650.47;;;15.80;100.00
52777;BME280;38656;54.260;20.822;2023-10-13T12:49:20;100642.88;;;16.29;100.00
52777;BME280;38656;54.260;20.822;2023-10-13T12:52:04;100644.13;;;15.63;100.00
52777;BME280;38656;54.260;20.822;2023-10-13T12:54:31;100644.84;;;15.83;100.00
52777;BME280;38656;54.260;20.822;2023-10-13T12:57:05;100635.91;;;15.56;100.00
52777;BME280;38656;54.260;20.822;2023-10-13T12:59:36;100632.63;;;15.62;100.00
52777;BME280;38656;54.260;20.822;2023-10-13T13:02:04;100633.78;;;15.78;100.00
52777;BME280;38656;54.260;20.822;2023-10-13T13:04:33;100636.22;;;16.33;100.00
52777;BME280;38656;54.260;20.822;2023-10-13T13:07:03;100615.59;;;15.55;100.00
52777;BME280;38656;54.260;20.822;2023-10-13T13:09:30;100621.97;;;15.62;100.00
52777;BME280;38656;54.260;20.822;2023-10-13T13:11:57;100620.59;;;15.58;100.00
52777;BME280;38656;54.260;20.822;2023-10-13T13:14:26;100618.22;;;15.83;100.00
52777;BME280;38656;54.260;20.822;2023-10-13T13:16:56;100604.19;;;15.45;100.00
52777;BME280;38656;54.260;20.822;2023-10-13T13:19:32;100609.91;;;15.68;100.00
52777;BME280;38656;54.260;20.822;2023-10-13T13:22:02;100589.72;;;15.65;100.00
52777;BME280;38656;54.260;20.822;2023-10-13T13:24:30;100572.56;;;15.42;100.00
52777;BME280;38656;54.260;20.822;2023-10-13T13:27:05;100558.88;;;15.36;100.00
52777;BME280;38656;54.260;20.822;2023-10-13T13:29:31;100551.66;;;15.47;100.00
52777;BME280;38656;54.260;20.822;2023-10-13T13:31:57;100540.91;;;16.27;100.00
52777;BME280;38656;54.260;20.822;2023-10-13T13:34:26;100530.59;;;15.98;100.00
52777;BME280;38656;54.260;20.822;2023-10-13T13:36:52;100525.88;;;16.18;100.00
52777;BME280;38656;54.260;20.822;2023-10-13T13:39:20;100530.34;;;15.65;100.00
52777;BME280;38656;54.260;20.822;2023-10-13T13:41:55;100526.91;;;15.72;100.00